This is the latest recevied weather packets stored in our database for station/object WMKP. If no packets are shown the sender has not sent any weather packets the latest 10 day(s).
| Time | Temp. | Humidity | Pressure | Rain* | Wind** | Luminosity | Snow |
|---|---|---|---|---|---|---|---|
| 1777414219 | 25° C | 94% | 1007 hPa | - | - | - | - |
| 1777410609 | 25° C | 94% | 1007 hPa | - | - | - | - |
| 1777403412 | 23.89° C | 94% | 1009 hPa | - | - | - | - |
| 1777396217 | 23.89° C | 88% | 1011 hPa | - | - | - | - |
| 1777389009 | 28.89° C | 79% | 1008 hPa | - | - | - | - |
| 1777387191 | 28.89° C | 79% | 1008 hPa | - | - | - | - |
| 1777386584 | 28.89° C | 79% | 1008 hPa | - | - | - | - |
| 1777385409 | 28.89° C | 79% | 1008 hPa | - | - | - | - |
| 1777383591 | 28.89° C | 79% | 1007 hPa | - | - | - | - |
| 1777381816 | 28.89° C | 79% | 1007 hPa | - | - | - | - |
| 1777378208 | 28.89° C | 79% | 1007 hPa | - | - | - | - |
| 1777374608 | 30° C | 74% | 1006 hPa | - | - | - | - |
| 1777371008 | 30.56° C | 66% | 1005 hPa | - | - | - | - |
| 1777369190 | 30.56° C | 66% | 1005 hPa | - | - | - | - |
| 1777367416 | 30.56° C | 66% | 1005 hPa | - | - | - | - |
| 1777365591 | 30.56° C | 66% | 1005 hPa | - | - | - | - |
| 1777363808 | 31.67° C | 62% | 1006 hPa | - | - | - | - |
| 1777361998 | 31.67° C | 62% | 1006 hPa | - | - | - | - |
| 1777360208 | 31.67° C | 66% | 1006 hPa | - | - | - | - |
| 1777358390 | 30.56° C | 70% | 1007 hPa | - | - | - | - |
| 1777356608 | 31.67° C | 70% | 1007 hPa | - | - | - | - |
| 1777354792 | 31.67° C | 66% | 1008 hPa | - | - | - | - |
| 1777353015 | 30.56° C | 70% | 1008 hPa | - | - | - | - |
| 1777351189 | 30.56° C | 66% | 1009 hPa | - | - | - | - |
| 1777349407 | 31.67° C | 66% | 1009 hPa | - | - | - | - |
* Rain since midnight (hover to see other rain measurements)
** Current wind speed in m/s (hover to see current wind gust speed)